createdAt,value
2022-12-08T00:01:23.873Z,12.80
2022-12-08T00:03:51.693Z,10.35
2022-12-08T00:06:37.055Z,10.00
2022-12-08T00:09:22.051Z,15.13
2022-12-08T00:14:16.286Z,13.35
2022-12-08T00:16:43.175Z,14.00
2022-12-08T00:19:10.282Z,15.80
2022-12-08T00:21:36.855Z,12.80
2022-12-08T00:24:03.757Z,15.77
2022-12-08T00:26:30.583Z,13.85
2022-12-08T00:28:57.531Z,8.48
2022-12-08T00:31:24.179Z,14.23
2022-12-08T00:33:50.904Z,10.77
2022-12-08T00:36:17.542Z,12.50
2022-12-08T00:38:45.057Z,11.07
2022-12-08T00:41:17.402Z,11.07
2022-12-08T00:43:44.354Z,12.25
2022-12-08T00:46:12.212Z,11.68
2022-12-08T00:48:39.607Z,10.70
2022-12-08T00:51:06.323Z,6.25
2022-12-08T00:53:32.995Z,10.07
2022-12-08T00:55:59.718Z,9.40
2022-12-08T00:58:26.476Z,9.35
2022-12-08T01:00:53.302Z,12.80
2022-12-08T01:03:20.051Z,10.25
2022-12-08T01:08:13.466Z,10.10
2022-12-08T01:10:40.822Z,12.65
2022-12-08T01:13:07.561Z,14.60
2022-12-08T01:15:34.263Z,11.57
2022-12-08T01:18:01.033Z,15.63
2022-12-08T01:22:54.348Z,13.35
2022-12-08T01:25:21.279Z,15.65
2022-12-08T01:27:48.358Z,12.02
2022-12-08T01:30:15.038Z,14.75
2022-12-08T01:32:41.846Z,12.68
2022-12-08T01:37:35.365Z,9.52
2022-12-08T01:40:02.408Z,12.70
2022-12-08T01:42:30.798Z,11.82
2022-12-08T01:45:03.003Z,11.05
2022-12-08T01:47:41.770Z,10.18
2022-12-08T01:50:11.616Z,9.07
2022-12-08T01:52:46.736Z,13.77
2022-12-08T01:55:20.437Z,7.97
2022-12-08T01:57:54.636Z,9.52
2022-12-08T02:00:22.873Z,12.90
2022-12-08T02:02:57.472Z,8.50
2022-12-08T02:05:27.360Z,7.88
2022-12-08T02:07:55.729Z,8.98
2022-12-08T02:10:24.577Z,12.50
2022-12-08T02:12:53.978Z,13.25
2022-12-08T02:15:43.016Z,14.18
2022-12-08T02:18:19.297Z,11.50
2022-12-08T02:20:57.128Z,11.63
2022-12-08T02:23:35.784Z,6.57
2022-12-08T02:26:27.492Z,9.13
2022-12-08T02:29:13.353Z,16.90
2022-12-08T02:32:07.662Z,10.20
2022-12-08T02:34:37.756Z,10.73
2022-12-08T02:37:27.729Z,13.25
2022-12-08T02:40:06.961Z,13.90
2022-12-08T02:42:42.897Z,10.35
2022-12-08T02:45:33.992Z,11.85
2022-12-08T02:48:00.852Z,12.18
2022-12-08T02:52:55.049Z,6.97
2022-12-08T02:55:32.002Z,13.77
2022-12-08T02:58:13.595Z,8.90
2022-12-08T03:00:57.383Z,9.75
2022-12-08T03:03:44.660Z,12.75
2022-12-08T03:06:33.379Z,10.30
2022-12-08T03:09:08.425Z,11.27
2022-12-08T03:11:47.491Z,15.75
2022-12-08T03:14:17.340Z,9.38
2022-12-08T03:16:48.384Z,9.45
2022-12-08T03:19:25.606Z,17.42
2022-12-08T03:22:02.771Z,10.30
2022-12-08T03:24:41.822Z,11.02
2022-12-08T03:27:16.703Z,10.77
2022-12-08T03:29:43.670Z,11.10
2022-12-08T03:32:22.469Z,7.13
2022-12-08T03:34:51.593Z,17.65
2022-12-08T03:37:18.486Z,8.25
2022-12-08T03:39:45.133Z,14.05
2022-12-08T03:42:12.153Z,13.05
2022-12-08T03:44:38.860Z,10.00
2022-12-08T03:47:05.526Z,11.23
2022-12-08T03:49:32.307Z,13.27
2022-12-08T03:51:58.867Z,9.43
2022-12-08T03:54:25.589Z,16.13
2022-12-08T03:56:52.446Z,8.05
2022-12-08T03:59:19.270Z,8.95
2022-12-08T04:01:45.962Z,11.40
2022-12-08T04:06:39.233Z,8.48
2022-12-08T04:09:06.040Z,11.45
2022-12-08T04:11:32.728Z,8.13
2022-12-08T04:13:59.353Z,12.48
2022-12-08T04:16:27.889Z,12.80
2022-12-08T04:18:55.115Z,15.68
2022-12-08T04:21:21.970Z,15.57
2022-12-08T04:23:48.574Z,14.88
2022-12-08T04:26:15.847Z,13.88
2022-12-08T04:28:42.758Z,12.32
2022-12-08T04:31:10.721Z,11.45
2022-12-08T04:33:37.470Z,8.90
2022-12-08T04:36:05.469Z,7.60
2022-12-08T04:38:32.941Z,9.52
2022-12-08T04:40:59.785Z,9.30
2022-12-08T04:45:53.136Z,6.20
2022-12-08T04:48:19.785Z,12.30
2022-12-08T04:50:46.449Z,7.95
2022-12-08T04:53:14.390Z,9.77
2022-12-08T04:55:43.917Z,17.67
2022-12-08T04:58:15.761Z,8.73
2022-12-08T05:00:43.361Z,13.48
2022-12-08T05:03:10.246Z,11.02
2022-12-08T05:08:04.544Z,11.00
2022-12-08T05:10:31.772Z,8.43
2022-12-08T05:13:00.913Z,10.85
2022-12-08T05:15:27.669Z,11.85
2022-12-08T05:17:54.315Z,12.18
2022-12-08T05:20:21.299Z,17.00
2022-12-08T05:22:48.216Z,15.68
2022-12-08T05:27:42.116Z,14.10
2022-12-08T05:30:08.933Z,11.73
2022-12-08T05:32:38.596Z,10.15
2022-12-08T05:35:05.595Z,9.05
2022-12-08T05:37:34.874Z,15.07
2022-12-08T05:40:02.058Z,8.50
2022-12-08T05:42:28.943Z,10.60
2022-12-08T05:44:55.598Z,12.07
2022-12-08T05:47:22.416Z,13.27
2022-12-08T05:52:16.977Z,10.73
2022-12-08T05:54:44.325Z,17.60
2022-12-08T05:57:12.182Z,12.80
2022-12-08T05:59:39.756Z,11.35
2022-12-08T06:02:06.656Z,12.00
2022-12-08T06:04:33.548Z,10.70
2022-12-08T06:07:00.219Z,8.00
2022-12-08T06:11:53.713Z,9.98
2022-12-08T06:14:20.556Z,12.13
2022-12-08T06:16:50.095Z,12.82
2022-12-08T06:19:17.823Z,11.82
2022-12-08T06:21:44.639Z,18.42
2022-12-08T06:24:12.096Z,15.73
2022-12-08T06:26:40.316Z,10.55
2022-12-08T06:29:07.805Z,15.73
2022-12-08T06:31:34.581Z,12.98
2022-12-08T06:34:01.449Z,8.75
2022-12-08T06:38:56.711Z,9.27
2022-12-08T06:41:23.529Z,10.27
2022-12-08T06:43:50.128Z,9.80
2022-12-08T06:46:19.040Z,11.98
2022-12-08T06:48:46.080Z,11.73
2022-12-08T06:51:16.299Z,11.77
2022-12-08T06:53:43.919Z,10.98
2022-12-08T06:56:12.022Z,14.55
2022-12-08T06:58:38.739Z,13.07
2022-12-08T07:01:11.871Z,16.85
2022-12-08T07:03:39.814Z,8.18
2022-12-08T07:06:07.024Z,10.48
2022-12-08T07:08:34.445Z,22.17
2022-12-08T07:11:07.781Z,7.43
2022-12-08T07:13:34.633Z,12.05
2022-12-08T07:16:01.169Z,10.60
2022-12-08T07:18:27.846Z,14.90
2022-12-08T07:20:54.419Z,8.63
2022-12-08T07:23:21.047Z,9.43
2022-12-08T07:25:47.629Z,11.63
2022-12-08T07:28:14.326Z,11.15
2022-12-08T07:30:41.208Z,10.68
2022-12-08T07:33:07.920Z,12.95
2022-12-08T07:35:35.385Z,6.22
2022-12-08T07:38:02.450Z,9.63
2022-12-08T07:40:29.309Z,10.85
2022-12-08T07:45:28.218Z,5.72
2022-12-08T07:47:58.126Z,10.25
2022-12-08T07:52:51.801Z,10.02
2022-12-08T07:55:18.428Z,26.58
2022-12-08T07:57:44.963Z,9.77
2022-12-08T08:00:12.377Z,11.73
2022-12-08T08:02:39.331Z,10.43
2022-12-08T08:05:06.557Z,12.43
2022-12-08T08:07:33.406Z,11.15
2022-12-08T08:12:31.636Z,9.45
2022-12-08T08:15:00.193Z,8.98
2022-12-08T08:17:27.394Z,10.27
2022-12-08T08:19:54.207Z,5.13
2022-12-08T08:22:20.962Z,11.10
2022-12-08T08:24:47.585Z,7.10
2022-12-08T08:27:14.401Z,10.27
2022-12-08T08:32:07.804Z,6.25
2022-12-08T08:34:34.499Z,9.15
2022-12-08T08:37:02.019Z,10.75
2022-12-08T08:39:30.175Z,8.52
2022-12-08T08:41:57.005Z,7.47
2022-12-08T08:44:23.928Z,10.35
2022-12-08T08:46:52.014Z,9.38
2022-12-08T08:49:18.821Z,12.32
2022-12-08T08:54:13.021Z,6.93
2022-12-08T08:59:06.720Z,9.07
2022-12-08T09:01:34.152Z,6.78
2022-12-08T09:04:01.462Z,8.32
2022-12-08T09:06:28.556Z,7.28
2022-12-08T09:08:55.583Z,9.57
2022-12-08T09:13:51.677Z,7.20
2022-12-08T09:16:19.276Z,9.30
2022-12-08T09:18:46.313Z,10.15
2022-12-08T09:21:16.726Z,6.85
2022-12-08T09:23:44.076Z,9.07
2022-12-08T09:26:10.834Z,6.13
2022-12-08T09:31:04.799Z,7.32
2022-12-08T09:33:31.761Z,11.23
2022-12-08T09:36:02.847Z,6.93
2022-12-08T09:38:31.953Z,7.20
2022-12-08T09:40:59.778Z,10.30
2022-12-08T09:43:38.160Z,6.15
2022-12-08T09:46:10.550Z,9.05
2022-12-08T09:48:47.544Z,11.07
2022-12-08T09:51:16.275Z,9.05
2022-12-08T09:53:48.272Z,7.40
2022-12-08T09:56:14.936Z,12.35
2022-12-08T09:58:53.792Z,8.27
2022-12-08T10:01:26.721Z,9.68
2022-12-08T10:03:55.957Z,11.48
2022-12-08T10:06:33.566Z,10.40
2022-12-08T10:09:29.343Z,6.63
2022-12-08T10:12:19.970Z,10.85
2022-12-08T10:14:54.861Z,9.40
2022-12-08T10:17:42.614Z,10.90
2022-12-08T10:20:15.183Z,12.07
2022-12-08T10:22:44.867Z,9.38
2022-12-08T10:25:35.269Z,8.50
2022-12-08T10:28:01.972Z,8.57
2022-12-08T10:30:28.644Z,7.25
2022-12-08T10:32:55.493Z,8.63
2022-12-08T10:35:23.408Z,7.97
2022-12-08T10:37:58.999Z,6.07
2022-12-08T10:40:29.368Z,5.28
2022-12-08T10:43:01.396Z,5.60
2022-12-08T10:45:37.683Z,7.70
2022-12-08T10:48:12.964Z,11.45
2022-12-08T10:50:45.691Z,7.57
2022-12-08T10:53:14.221Z,5.72
2022-12-08T10:55:47.778Z,5.78
2022-12-08T10:58:41.931Z,10.27
2022-12-08T11:01:26.677Z,7.85
2022-12-08T11:04:05.310Z,7.53
2022-12-08T11:06:35.458Z,8.77
2022-12-08T11:09:06.780Z,7.68
2022-12-08T11:11:48.060Z,7.45
2022-12-08T11:14:26.250Z,6.60
2022-12-08T11:16:56.460Z,6.18
2022-12-08T11:19:27.964Z,8.00
2022-12-08T11:21:54.791Z,10.68
2022-12-08T11:26:59.281Z,3.80
2022-12-08T11:29:28.179Z,6.75
2022-12-08T11:32:17.675Z,5.97
2022-12-08T11:35:06.780Z,7.75
2022-12-08T11:37:40.205Z,5.82
2022-12-08T11:40:20.331Z,9.50
2022-12-08T11:43:05.691Z,8.98
2022-12-08T11:45:35.194Z,9.23
2022-12-08T11:48:24.986Z,8.57
2022-12-08T11:51:03.516Z,9.18
2022-12-08T11:53:43.055Z,10.07
2022-12-08T11:56:29.933Z,10.73
2022-12-08T11:59:01.639Z,6.85
2022-12-08T12:01:28.295Z,6.80
2022-12-08T12:03:58.040Z,7.28
2022-12-08T12:06:57.809Z,8.77
2022-12-08T12:09:58.232Z,8.23
2022-12-08T12:12:52.579Z,10.10
2022-12-08T12:15:28.465Z,9.13
2022-12-08T12:18:16.745Z,9.25
2022-12-08T12:21:07.878Z,9.35
2022-12-08T12:24:02.536Z,9.63
2022-12-08T12:26:31.916Z,16.42
2022-12-08T12:29:05.850Z,7.80
2022-12-08T12:31:37.309Z,10.20
2022-12-08T12:34:27.554Z,5.97
2022-12-08T12:36:58.219Z,5.15
2022-12-08T12:39:30.384Z,7.68
2022-12-08T12:42:00.927Z,10.68
2022-12-08T12:44:27.700Z,7.22
2022-12-08T12:47:01.407Z,8.27
2022-12-08T12:49:40.597Z,8.43
2022-12-08T12:52:10.365Z,7.40
2022-12-08T12:54:42.659Z,6.97
2022-12-08T12:57:09.454Z,8.70
2022-12-08T12:59:55.173Z,10.18
2022-12-08T13:02:33.388Z,7.93
2022-12-08T13:05:15.716Z,5.55
2022-12-08T13:07:50.012Z,6.75
2022-12-08T13:10:19.124Z,9.93
2022-12-08T13:13:01.362Z,6.97
2022-12-08T13:15:35.048Z,7.10
2022-12-08T13:18:02.009Z,6.63
2022-12-08T13:20:28.748Z,7.25
2022-12-08T13:23:26.304Z,7.32
2022-12-08T13:26:09.250Z,6.18
2022-12-08T13:28:58.367Z,7.43
2022-12-08T13:31:45.050Z,8.30
2022-12-08T13:34:30.170Z,7.30
2022-12-08T13:37:15.489Z,8.60
2022-12-08T13:39:49.790Z,7.47
2022-12-08T13:42:35.247Z,7.00
2022-12-08T13:45:39.820Z,9.77
2022-12-08T13:48:23.548Z,8.18
2022-12-08T13:59:19.219Z,7.47
2022-12-08T14:01:48.460Z,7.53
2022-12-08T14:04:42.567Z,5.40
2022-12-08T14:07:06.103Z,4.28
2022-12-08T14:09:36.808Z,8.48
2022-12-08T14:12:23.092Z,5.32
2022-12-08T14:15:02.968Z,6.60
2022-12-08T14:17:30.646Z,6.50
2022-12-08T14:19:58.655Z,8.68
2022-12-08T14:22:32.304Z,8.60
2022-12-08T14:24:59.019Z,7.15
2022-12-08T14:27:30.049Z,8.90
2022-12-08T14:30:00.309Z,7.00
2022-12-08T14:32:33.115Z,7.72
2022-12-08T14:37:42.247Z,7.80
2022-12-08T14:40:28.747Z,8.02
2022-12-08T14:43:07.730Z,10.30
2022-12-08T14:48:30.878Z,6.70
2022-12-08T14:53:39.615Z,9.70
2022-12-08T14:56:09.701Z,12.98
2022-12-08T14:58:36.390Z,10.23
2022-12-08T15:01:06.451Z,10.88
2022-12-08T15:03:33.497Z,10.02
2022-12-08T15:06:06.354Z,12.82
2022-12-08T15:11:34.185Z,12.10
2022-12-08T15:14:01.021Z,13.63
2022-12-08T15:21:37.048Z,10.13
2022-12-08T15:26:39.133Z,14.93
2022-12-08T15:29:18.912Z,13.05
2022-12-08T15:31:46.220Z,13.60
2022-12-08T15:34:12.931Z,13.55
2022-12-08T15:39:11.108Z,18.27
2022-12-08T15:41:38.058Z,16.55
2022-12-08T15:46:31.921Z,12.80
2022-12-08T15:48:58.595Z,14.45
2022-12-08T15:51:25.251Z,16.80
2022-12-08T15:53:53.710Z,14.07
2022-12-08T15:56:27.463Z,11.70
2022-12-08T15:59:03.764Z,18.95
2022-12-08T16:01:30.476Z,16.30
2022-12-08T16:09:38.713Z,14.15
2022-12-08T16:13:13.899Z,13.98
2022-12-08T16:18:23.203Z,10.48
2022-12-08T16:23:45.230Z,16.20
2022-12-08T16:26:54.682Z,16.05
2022-12-08T16:29:07.169Z,9.88
2022-12-08T16:31:35.001Z,9.70
2022-12-08T16:34:01.768Z,12.60
2022-12-08T16:38:55.158Z,9.40
2022-12-08T16:41:40.410Z,13.23
2022-12-08T16:44:07.063Z,13.98
2022-12-08T16:46:33.886Z,11.45
2022-12-08T16:51:27.644Z,11.57
2022-12-08T16:53:58.489Z,8.65
2022-12-08T16:56:32.298Z,11.15
2022-12-08T16:59:00.750Z,13.05
2022-12-08T17:01:28.864Z,11.35
2022-12-08T17:04:22.948Z,10.73
2022-12-08T17:06:42.570Z,11.88
2022-12-08T17:09:09.361Z,12.98
2022-12-08T17:11:42.702Z,8.35
2022-12-08T17:14:13.087Z,9.18
2022-12-08T17:16:40.465Z,11.20
2022-12-08T17:19:07.255Z,8.10
2022-12-08T17:21:34.140Z,9.23
2022-12-08T17:24:00.779Z,9.13
2022-12-08T17:26:27.609Z,7.80
2022-12-08T17:31:31.472Z,8.25
2022-12-08T17:34:04.230Z,9.02
2022-12-08T17:36:30.989Z,13.35
2022-12-08T17:38:59.936Z,16.08
2022-12-08T17:41:27.062Z,13.98
2022-12-08T17:43:53.789Z,13.60
2022-12-08T17:46:21.385Z,11.98
2022-12-08T17:48:48.543Z,12.07
2022-12-08T17:51:15.482Z,15.13
2022-12-08T17:53:42.709Z,12.20
2022-12-08T17:56:18.177Z,11.93
2022-12-08T17:58:45.649Z,13.18
2022-12-08T18:01:19.430Z,13.43
2022-12-08T18:03:47.323Z,15.55
2022-12-08T18:06:13.994Z,11.45
2022-12-08T18:08:40.930Z,9.93
2022-12-08T18:13:38.067Z,8.35
2022-12-08T18:16:06.646Z,11.27
2022-12-08T18:18:33.335Z,9.82
2022-12-08T18:20:59.925Z,11.18
2022-12-08T18:23:27.894Z,11.23
2022-12-08T18:25:54.583Z,10.80
2022-12-08T18:28:21.638Z,10.07
2022-12-08T18:30:48.385Z,8.20
2022-12-08T18:33:15.120Z,10.05
2022-12-08T18:38:08.865Z,8.40
2022-12-08T18:40:35.569Z,9.15
2022-12-08T18:43:02.189Z,8.50
2022-12-08T18:45:28.882Z,9.82
2022-12-08T18:47:55.659Z,10.35
2022-12-08T18:52:49.024Z,9.65
2022-12-08T18:55:16.052Z,11.75
2022-12-08T18:57:43.379Z,10.23
2022-12-08T19:00:16.557Z,15.30
2022-12-08T19:02:43.652Z,13.73
2022-12-08T19:05:12.941Z,10.77
2022-12-08T19:07:39.675Z,10.50
2022-12-08T19:10:07.574Z,10.55
2022-12-08T19:12:34.581Z,11.95
2022-12-08T19:15:01.299Z,15.80
2022-12-08T19:17:29.659Z,13.93
2022-12-08T19:19:56.568Z,14.88
2022-12-08T19:24:49.918Z,16.83
2022-12-08T19:27:16.999Z,14.18
2022-12-08T19:29:43.660Z,17.52
2022-12-08T19:32:10.345Z,18.63
2022-12-08T19:34:37.029Z,18.17
2022-12-08T19:37:03.817Z,23.42
2022-12-08T19:42:37.091Z,18.85
2022-12-08T19:45:30.334Z,18.75
2022-12-08T19:47:57.046Z,23.23
2022-12-08T19:50:41.476Z,24.00
2022-12-08T19:53:15.717Z,20.58
2022-12-08T19:55:43.507Z,17.35
2022-12-08T19:58:11.174Z,17.48
2022-12-08T20:00:39.646Z,20.83
2022-12-08T20:03:08.071Z,17.10
2022-12-08T20:05:36.750Z,21.88
2022-12-08T20:08:07.229Z,20.33
2022-12-08T20:10:36.921Z,24.05
2022-12-08T20:13:23.496Z,13.00
2022-12-08T20:15:53.444Z,23.98
2022-12-08T20:18:20.340Z,22.13
2022-12-08T20:20:48.088Z,17.13
2022-12-08T20:23:15.718Z,11.45
2022-12-08T20:25:44.815Z,22.63
2022-12-08T20:28:12.313Z,16.10
2022-12-08T20:30:43.301Z,19.88
2022-12-08T20:33:13.129Z,23.60
2022-12-08T20:35:40.027Z,22.17
2022-12-08T20:40:33.327Z,19.73
2022-12-08T20:45:26.775Z,19.83
2022-12-08T20:47:53.852Z,19.75
2022-12-08T20:50:22.876Z,19.85
2022-12-08T20:52:50.672Z,18.58
2022-12-08T20:55:17.659Z,18.70
2022-12-08T20:57:44.468Z,12.70
2022-12-08T21:00:12.043Z,14.38
2022-12-08T21:02:45.077Z,20.40
2022-12-08T21:05:14.397Z,15.07
2022-12-08T21:07:41.336Z,17.48
2022-12-08T21:10:09.106Z,12.40
2022-12-08T21:12:36.077Z,13.43
2022-12-08T21:15:02.958Z,15.00
2022-12-08T21:17:30.019Z,13.45
2022-12-08T21:22:23.351Z,11.25
2022-12-08T21:24:50.491Z,17.40
2022-12-08T21:27:17.920Z,13.25
2022-12-08T21:29:45.261Z,15.98
2022-12-08T21:32:13.319Z,18.50
2022-12-08T21:34:40.487Z,14.77
2022-12-08T21:37:07.417Z,23.20
2022-12-08T21:39:34.660Z,20.35
2022-12-08T21:42:22.745Z,20.85
2022-12-08T21:44:49.896Z,10.98
2022-12-08T21:49:43.812Z,18.33
2022-12-08T21:52:11.297Z,12.52
2022-12-08T21:57:05.300Z,12.88
2022-12-08T21:59:32.185Z,17.30
2022-12-08T22:01:59.378Z,21.48
2022-12-08T22:04:26.482Z,20.50
2022-12-08T22:06:54.005Z,20.83
2022-12-08T22:11:47.876Z,15.13
2022-12-08T22:14:15.521Z,21.83
2022-12-08T22:16:43.369Z,16.63
2022-12-08T22:19:10.689Z,12.07
2022-12-08T22:21:38.267Z,17.48
2022-12-08T22:24:06.191Z,18.27
2022-12-08T22:26:33.584Z,13.20
2022-12-08T22:29:00.476Z,17.23
2022-12-08T22:31:27.819Z,13.73
2022-12-08T22:33:55.307Z,13.95
2022-12-08T22:36:24.558Z,14.50
2022-12-08T22:38:52.408Z,15.55
2022-12-08T22:41:20.408Z,18.15
2022-12-08T22:43:47.932Z,18.13
2022-12-08T22:46:20.770Z,18.92
2022-12-08T22:48:48.201Z,18.13
2022-12-08T22:51:15.811Z,26.95
2022-12-08T22:53:42.570Z,24.27
2022-12-08T22:56:11.839Z,21.33
2022-12-08T22:58:39.886Z,20.35
2022-12-08T23:01:07.542Z,25.60
2022-12-08T23:03:35.114Z,19.50
2022-12-08T23:06:02.486Z,16.67
2022-12-08T23:08:30.165Z,21.55
2022-12-08T23:10:57.947Z,17.05
2022-12-08T23:13:24.910Z,23.15
2022-12-08T23:18:19.326Z,18.75
2022-12-08T23:20:47.170Z,19.65
2022-12-08T23:23:14.263Z,18.15
2022-12-08T23:25:41.795Z,20.42
2022-12-08T23:28:09.405Z,20.20
2022-12-08T23:30:36.506Z,20.42
2022-12-08T23:33:03.237Z,21.75
2022-12-08T23:35:29.931Z,19.35
2022-12-08T23:37:56.775Z,13.55
2022-12-08T23:40:23.408Z,14.98
2022-12-08T23:42:50.086Z,19.08
2022-12-08T23:45:16.838Z,15.55
2022-12-08T23:47:43.702Z,17.08
2022-12-08T23:50:11.227Z,16.15
2022-12-08T23:52:39.897Z,20.95
2022-12-08T23:55:07.839Z,14.13
2022-12-08T23:57:38.602Z,20.30
